createdAt,value
2022-11-23T00:00:06.741Z,12.30
2022-11-23T00:02:33.452Z,14.70
2022-11-23T00:05:00.050Z,12.80
2022-11-23T00:07:26.671Z,13.63
2022-11-23T00:09:53.365Z,14.57
2022-11-23T00:12:19.984Z,14.70
2022-11-23T00:14:46.681Z,10.93
2022-11-23T00:17:13.269Z,13.43
2022-11-23T00:19:39.841Z,11.77
2022-11-23T00:22:06.427Z,11.70
2022-11-23T00:24:33.127Z,11.20
2022-11-23T00:26:59.719Z,12.17
2022-11-23T00:29:27.366Z,11.60
2022-11-23T00:31:53.938Z,10.57
2022-11-23T00:34:20.516Z,10.48
2022-11-23T00:36:48.670Z,11.97
2022-11-23T00:39:15.340Z,12.07
2022-11-23T00:41:41.918Z,8.83
2022-11-23T00:44:08.521Z,12.07
2022-11-23T00:46:35.241Z,14.75
2022-11-23T00:49:01.865Z,12.43
2022-11-23T00:51:31.330Z,11.15
2022-11-23T00:53:59.555Z,9.20
2022-11-23T00:56:28.555Z,10.02
2022-11-23T00:58:57.700Z,11.27
2022-11-23T01:01:27.028Z,11.55
2022-11-23T01:03:55.684Z,9.60
2022-11-23T01:06:26.311Z,10.02
2022-11-23T01:09:01.290Z,9.73
2022-11-23T01:11:31.052Z,9.98
2022-11-23T01:14:03.226Z,11.23
2022-11-23T01:16:32.805Z,9.65
2022-11-23T01:19:08.265Z,7.93
2022-11-23T01:21:35.449Z,10.82
2022-11-23T01:24:11.815Z,7.63
2022-11-23T01:26:39.403Z,11.25
2022-11-23T01:29:06.232Z,9.38
2022-11-23T01:31:32.885Z,8.57
2022-11-23T01:34:01.436Z,8.73
2022-11-23T01:36:33.368Z,9.10
2022-11-23T01:39:01.490Z,11.32
2022-11-23T01:41:31.856Z,7.85
2022-11-23T01:43:59.175Z,11.15
2022-11-23T01:46:26.049Z,8.35
2022-11-23T01:49:19.316Z,10.90
2022-11-23T01:51:49.049Z,9.60
2022-11-23T01:54:24.833Z,10.10
2022-11-23T01:56:56.813Z,9.73
2022-11-23T01:59:25.419Z,10.50
2022-11-23T02:01:52.189Z,10.43
2022-11-23T02:04:29.168Z,11.47
2022-11-23T02:06:57.353Z,8.70
2022-11-23T02:09:24.625Z,10.05
2022-11-23T02:11:51.954Z,8.52
2022-11-23T02:14:23.198Z,10.13
2022-11-23T02:16:50.544Z,9.05
2022-11-23T02:19:29.541Z,7.87
2022-11-23T02:21:56.638Z,9.15
2022-11-23T02:24:33.657Z,11.10
2022-11-23T02:27:01.885Z,9.60
2022-11-23T02:29:29.680Z,8.95
2022-11-23T02:31:56.508Z,9.98
2022-11-23T02:34:23.141Z,8.70
2022-11-23T02:36:54.857Z,11.48
2022-11-23T02:39:38.082Z,9.05
2022-11-23T02:42:05.905Z,9.27
2022-11-23T02:44:51.374Z,9.43
2022-11-23T02:47:18.137Z,9.20
2022-11-23T02:49:49.508Z,9.57
2022-11-23T02:52:18.080Z,8.85
2022-11-23T02:54:44.983Z,10.23
2022-11-23T02:57:11.673Z,11.55
2022-11-23T02:59:38.359Z,9.13
2022-11-23T03:02:05.855Z,8.43
2022-11-23T03:04:32.678Z,10.43
2022-11-23T03:06:59.560Z,6.22
2022-11-23T03:09:26.412Z,8.52
2022-11-23T03:11:54.123Z,10.18
2022-11-23T03:14:21.290Z,13.30
2022-11-23T03:16:47.986Z,7.35
2022-11-23T03:19:15.059Z,9.00
2022-11-23T03:21:41.644Z,10.68
2022-11-23T03:24:08.432Z,9.00
2022-11-23T03:26:35.048Z,10.25
2022-11-23T03:29:01.730Z,7.65
2022-11-23T03:31:28.349Z,7.72
2022-11-23T03:33:55.013Z,8.10
2022-11-23T03:36:21.657Z,9.88
2022-11-23T03:38:48.238Z,6.70
2022-11-23T03:41:14.849Z,6.90
2022-11-23T03:43:41.493Z,8.05
2022-11-23T03:46:08.091Z,8.70
2022-11-23T03:48:34.704Z,8.40
2022-11-23T03:51:01.469Z,9.40
2022-11-23T03:53:28.062Z,8.90
2022-11-23T03:55:58.199Z,5.65
2022-11-23T03:58:24.844Z,7.13
2022-11-23T04:00:51.473Z,7.70
2022-11-23T04:03:18.273Z,6.72
2022-11-23T04:05:44.987Z,9.18
2022-11-23T04:08:11.654Z,9.77
2022-11-23T04:10:38.393Z,7.25
2022-11-23T04:13:05.090Z,8.00
2022-11-23T04:15:31.666Z,6.45
2022-11-23T04:17:58.325Z,8.55
2022-11-23T04:20:24.982Z,7.20
2022-11-23T04:22:51.590Z,6.60
2022-11-23T04:25:18.548Z,7.10
2022-11-23T04:27:46.017Z,11.23
2022-11-23T04:30:13.023Z,6.43
2022-11-23T04:32:39.671Z,12.15
2022-11-23T04:35:06.511Z,9.50
2022-11-23T04:37:33.186Z,8.90
2022-11-23T04:39:59.801Z,6.18
2022-11-23T04:42:26.474Z,9.20
2022-11-23T04:44:53.069Z,7.38
2022-11-23T04:47:19.675Z,8.48
2022-11-23T04:49:46.313Z,8.15
2022-11-23T04:52:12.959Z,7.15
2022-11-23T04:54:39.568Z,8.98
2022-11-23T04:57:08.414Z,9.30
2022-11-23T04:59:35.138Z,8.10
2022-11-23T05:02:01.988Z,7.10
2022-11-23T05:04:28.653Z,5.35
2022-11-23T05:06:55.280Z,8.98
2022-11-23T05:09:21.926Z,6.53
2022-11-23T05:11:48.507Z,9.02
2022-11-23T05:14:15.282Z,7.97
2022-11-23T05:16:41.876Z,8.15
2022-11-23T05:19:08.945Z,6.13
2022-11-23T05:21:35.597Z,7.70
2022-11-23T05:24:02.179Z,8.00
2022-11-23T05:26:28.953Z,7.50
2022-11-23T05:28:55.571Z,8.05
2022-11-23T05:31:22.350Z,7.10
2022-11-23T05:33:49.117Z,7.25
2022-11-23T05:36:15.967Z,8.55
2022-11-23T05:38:43.421Z,8.75
2022-11-23T05:41:10.078Z,7.03
2022-11-23T05:43:36.679Z,8.85
2022-11-23T05:46:03.495Z,8.85
2022-11-23T05:48:30.136Z,7.57
2022-11-23T05:51:02.158Z,7.80
2022-11-23T05:53:31.951Z,6.70
2022-11-23T05:56:02.844Z,8.85
2022-11-23T05:58:29.704Z,8.57
2022-11-23T06:01:01.074Z,9.88
2022-11-23T06:03:27.982Z,7.57
2022-11-23T06:05:54.763Z,11.25
2022-11-23T06:08:21.349Z,8.80
2022-11-23T06:10:48.252Z,9.18
2022-11-23T06:13:15.055Z,16.08
2022-11-23T06:15:41.972Z,12.57
2022-11-23T06:20:50.177Z,9.30
2022-11-23T06:23:17.106Z,10.85
2022-11-23T06:25:43.761Z,8.98
2022-11-23T06:28:10.687Z,8.43
2022-11-23T06:30:37.273Z,10.23
2022-11-23T06:33:04.664Z,7.97
2022-11-23T06:35:31.363Z,9.48
2022-11-23T06:37:58.457Z,9.13
2022-11-23T06:40:25.132Z,12.32
2022-11-23T06:42:53.749Z,8.40
2022-11-23T06:45:20.366Z,7.88
2022-11-23T06:47:46.954Z,8.20
2022-11-23T06:50:14.639Z,7.85
2022-11-23T06:52:41.350Z,8.32
2022-11-23T06:55:08.264Z,11.90
2022-11-23T06:57:34.820Z,7.18
2022-11-23T07:00:01.491Z,7.72
2022-11-23T07:02:28.145Z,5.38
2022-11-23T07:04:54.834Z,11.00
2022-11-23T07:07:21.766Z,8.90
2022-11-23T07:09:48.402Z,7.10
2022-11-23T07:12:14.989Z,12.75
2022-11-23T07:14:41.639Z,9.80
2022-11-23T07:17:08.227Z,7.03
2022-11-23T07:19:35.032Z,7.18
2022-11-23T07:22:02.243Z,8.62
2022-11-23T07:24:32.854Z,9.77
2022-11-23T07:27:03.166Z,8.27
2022-11-23T07:29:30.762Z,11.18
2022-11-23T07:31:57.530Z,9.52
2022-11-23T07:34:24.187Z,8.30
2022-11-23T07:36:51.757Z,9.10
2022-11-23T07:39:18.373Z,8.18
2022-11-23T07:41:47.153Z,8.55
2022-11-23T07:44:13.946Z,11.45
2022-11-23T07:46:42.464Z,6.45
2022-11-23T07:49:09.352Z,9.05
2022-11-23T07:51:36.293Z,9.48
2022-11-23T07:54:03.194Z,7.68
2022-11-23T07:56:30.046Z,8.00
2022-11-23T07:58:57.046Z,8.25
2022-11-23T08:01:23.718Z,8.52
2022-11-23T08:03:50.391Z,7.70
2022-11-23T08:06:17.088Z,7.85
2022-11-23T08:08:44.726Z,7.68
2022-11-23T08:11:15.583Z,7.63
2022-11-23T08:13:43.392Z,8.10
2022-11-23T08:16:10.443Z,9.52
2022-11-23T08:18:37.204Z,8.35
2022-11-23T08:21:04.291Z,6.50
2022-11-23T08:23:31.269Z,7.75
2022-11-23T08:25:57.901Z,7.53
2022-11-23T08:28:24.743Z,9.48
2022-11-23T08:30:53.021Z,9.00
2022-11-23T08:33:19.581Z,6.13
2022-11-23T08:35:46.860Z,9.52
2022-11-23T08:38:14.804Z,7.15
2022-11-23T08:40:41.508Z,5.20
2022-11-23T08:43:09.620Z,5.90
2022-11-23T08:45:36.376Z,7.10
2022-11-23T08:48:04.284Z,5.40
2022-11-23T08:50:31.388Z,5.55
2022-11-23T08:52:59.382Z,6.90
2022-11-23T08:55:27.077Z,6.05
2022-11-23T08:57:59.089Z,6.97
2022-11-23T09:00:27.248Z,5.95
2022-11-23T09:02:54.098Z,8.52
2022-11-23T09:05:20.829Z,5.03
2022-11-23T09:07:48.130Z,6.38
2022-11-23T09:10:18.750Z,6.68
2022-11-23T09:12:47.674Z,6.28
2022-11-23T09:15:14.560Z,6.72
2022-11-23T09:17:42.509Z,5.53
2022-11-23T09:20:10.263Z,6.30
2022-11-23T09:22:37.019Z,5.75
2022-11-23T09:25:05.321Z,5.40
2022-11-23T09:27:33.201Z,4.47
2022-11-23T09:29:59.851Z,7.45
2022-11-23T09:32:26.729Z,6.75
2022-11-23T09:34:53.319Z,8.02
2022-11-23T09:37:19.919Z,6.78
2022-11-23T09:39:46.484Z,8.85
2022-11-23T09:42:21.721Z,7.15
2022-11-23T09:45:18.436Z,7.30
2022-11-23T09:48:03.461Z,7.90
2022-11-23T09:50:48.942Z,10.85
2022-11-23T09:53:42.643Z,7.35
2022-11-23T09:56:21.477Z,6.88
2022-11-23T09:58:52.312Z,7.07
2022-11-23T10:01:20.183Z,6.97
2022-11-23T10:03:49.548Z,6.60
2022-11-23T10:06:23.500Z,9.48
2022-11-23T10:09:02.324Z,7.75
2022-11-23T10:11:56.531Z,7.63
2022-11-23T10:14:49.347Z,13.05
2022-11-23T10:17:22.053Z,7.78
2022-11-23T10:19:58.635Z,9.13
2022-11-23T10:22:38.751Z,8.30
2022-11-23T10:25:16.305Z,5.93
2022-11-23T10:27:45.944Z,8.57
2022-11-23T10:30:14.069Z,5.82
2022-11-23T10:32:53.043Z,11.60
2022-11-23T10:35:30.605Z,7.65
2022-11-23T10:38:19.402Z,7.03
2022-11-23T10:41:12.878Z,6.80
2022-11-23T10:43:49.564Z,10.50
2022-11-23T10:46:26.051Z,8.35
2022-11-23T10:48:54.025Z,5.75
2022-11-23T10:51:34.423Z,5.32
2022-11-23T10:54:17.402Z,4.70
2022-11-23T10:56:51.895Z,4.97
2022-11-23T10:59:37.202Z,6.53
2022-11-23T11:02:23.071Z,3.67
2022-11-23T11:04:57.319Z,4.68
2022-11-23T11:07:31.478Z,5.75
2022-11-23T11:10:04.223Z,6.82
2022-11-23T11:12:34.659Z,2.95
2022-11-23T11:15:21.058Z,8.23
2022-11-23T11:17:58.346Z,5.13
2022-11-23T11:20:28.567Z,4.95
2022-11-23T11:22:57.480Z,6.20
2022-11-23T11:25:38.403Z,4.78
2022-11-23T11:28:18.527Z,6.35
2022-11-23T11:31:14.224Z,4.72
2022-11-23T11:34:09.675Z,4.93
2022-11-23T11:36:45.309Z,4.93
2022-11-23T11:39:22.964Z,5.35
2022-11-23T11:41:53.561Z,4.38
2022-11-23T11:44:24.810Z,4.95
2022-11-23T11:46:57.882Z,3.58
2022-11-23T11:49:40.661Z,4.22
2022-11-23T11:52:24.515Z,5.53
2022-11-23T11:55:01.563Z,5.35
2022-11-23T11:57:41.274Z,4.00
2022-11-23T12:00:15.518Z,3.85
2022-11-23T12:03:06.913Z,5.18
2022-11-23T12:05:43.033Z,5.55
2022-11-23T12:08:21.939Z,5.97
2022-11-23T12:10:52.960Z,4.32
2022-11-23T12:13:23.750Z,7.22
2022-11-23T12:16:16.244Z,6.07
2022-11-23T12:19:04.624Z,4.82
2022-11-23T12:21:54.238Z,4.53
2022-11-23T12:24:33.170Z,7.75
2022-11-23T12:27:15.106Z,5.43
2022-11-23T12:29:49.149Z,6.43
2022-11-23T12:32:41.167Z,4.75
2022-11-23T12:35:26.120Z,5.50
2022-11-23T12:38:19.911Z,4.20
2022-11-23T12:41:23.301Z,7.55
2022-11-23T12:44:34.800Z,6.45
2022-11-23T12:47:30.527Z,9.68
2022-11-23T12:50:05.886Z,6.68
2022-11-23T12:52:48.877Z,7.65
2022-11-23T12:55:29.487Z,8.63
2022-11-23T12:58:16.289Z,4.40
2022-11-23T13:00:55.422Z,6.78
2022-11-23T13:03:47.727Z,3.80
2022-11-23T13:06:33.304Z,5.15
2022-11-23T13:09:27.098Z,5.82
2022-11-23T13:12:12.437Z,3.30
2022-11-23T13:15:07.252Z,6.30
2022-11-23T13:17:46.862Z,5.38
2022-11-23T13:20:30.453Z,5.60
2022-11-23T13:22:58.457Z,6.68
2022-11-23T13:25:29.790Z,4.82
2022-11-23T13:28:02.390Z,5.70
2022-11-23T13:33:26.986Z,4.70
2022-11-23T13:36:00.062Z,5.35
2022-11-23T13:38:38.172Z,5.43
2022-11-23T13:41:33.841Z,3.17
2022-11-23T13:44:19.168Z,4.13
2022-11-23T13:46:58.986Z,3.63
2022-11-23T13:49:49.968Z,2.03
2022-11-23T13:52:22.805Z,3.05
2022-11-23T13:55:09.242Z,2.55
2022-11-23T13:57:42.533Z,5.25
2022-11-23T14:00:47.228Z,2.42
2022-11-23T14:03:53.580Z,4.20
2022-11-23T14:06:40.651Z,4.18
2022-11-23T14:09:25.866Z,7.55
2022-11-23T14:12:11.467Z,3.85
2022-11-23T14:15:06.707Z,4.30
2022-11-23T14:17:49.504Z,5.00
2022-11-23T14:20:49.437Z,3.95
2022-11-23T14:23:32.122Z,1.48
2022-11-23T14:26:25.309Z,2.53
2022-11-23T14:29:13.334Z,2.35
2022-11-23T14:32:02.767Z,3.92
2022-11-23T14:34:45.628Z,8.10
2022-11-23T14:37:43.264Z,7.65
2022-11-23T14:40:42.274Z,3.85
2022-11-23T14:43:13.976Z,4.75
2022-11-23T14:45:41.363Z,3.80
2022-11-23T14:48:21.035Z,3.65
2022-11-23T14:50:59.343Z,2.80
2022-11-23T14:53:30.428Z,3.85
2022-11-23T14:55:58.465Z,3.05
2022-11-23T14:58:28.635Z,5.75
2022-11-23T15:01:02.460Z,5.13
2022-11-23T15:03:49.972Z,6.95
2022-11-23T15:06:22.251Z,5.00
2022-11-23T15:09:00.884Z,4.88
2022-11-23T15:11:31.466Z,3.95
2022-11-23T15:14:04.563Z,5.40
2022-11-23T15:16:40.011Z,5.03
2022-11-23T15:19:26.991Z,2.65
2022-11-23T15:21:54.872Z,5.88
2022-11-23T15:24:23.913Z,5.07
2022-11-23T15:27:18.296Z,3.33
2022-11-23T15:29:58.121Z,3.65
2022-11-23T15:32:31.907Z,2.20
2022-11-23T15:35:07.408Z,4.15
2022-11-23T15:37:44.118Z,4.18
2022-11-23T15:40:19.811Z,6.13
2022-11-23T15:42:49.610Z,6.25
2022-11-23T15:45:44.185Z,5.53
2022-11-23T15:48:16.915Z,6.70
2022-11-23T15:50:58.184Z,4.22
2022-11-23T15:53:29.242Z,5.03
2022-11-23T15:56:04.132Z,5.05
2022-11-23T15:58:32.537Z,4.53
2022-11-23T16:01:08.640Z,5.55
2022-11-23T16:03:53.421Z,7.32
2022-11-23T16:06:31.177Z,6.55
2022-11-23T16:08:58.057Z,5.88
2022-11-23T16:11:36.697Z,6.25
2022-11-23T16:14:18.544Z,4.70
2022-11-23T16:17:19.162Z,3.90
2022-11-23T16:19:50.205Z,10.03
2022-11-23T16:22:30.848Z,6.05
2022-11-23T16:25:21.834Z,3.83
2022-11-23T16:28:04.685Z,9.13
2022-11-23T16:30:46.353Z,5.97
2022-11-23T16:33:16.093Z,7.38
2022-11-23T16:35:43.377Z,7.00
2022-11-23T16:38:12.515Z,7.57
2022-11-23T16:40:40.033Z,11.20
2022-11-23T16:43:14.121Z,8.20
2022-11-23T16:45:46.700Z,10.98
2022-11-23T16:48:25.968Z,13.57
2022-11-23T16:51:00.124Z,11.13
2022-11-23T16:53:30.230Z,10.65
2022-11-23T16:56:00.156Z,10.73
2022-11-23T16:58:31.147Z,13.20
2022-11-23T17:00:57.915Z,8.68
2022-11-23T17:03:24.912Z,14.55
2022-11-23T17:05:51.920Z,9.50
2022-11-23T17:08:23.581Z,7.22
2022-11-23T17:10:51.266Z,11.95
2022-11-23T17:13:24.919Z,10.35
2022-11-23T17:15:52.129Z,8.95
2022-11-23T17:18:18.865Z,8.55
2022-11-23T17:20:45.506Z,10.82
2022-11-23T17:23:12.398Z,9.07
2022-11-23T17:25:40.311Z,9.20
2022-11-23T17:28:14.809Z,11.53
2022-11-23T17:30:41.572Z,9.17
2022-11-23T17:33:12.114Z,14.83
2022-11-23T17:35:39.797Z,12.20
2022-11-23T17:38:12.194Z,10.23
2022-11-23T17:40:38.876Z,22.37
2022-11-23T17:43:05.497Z,23.27
2022-11-23T17:45:32.186Z,19.37
2022-11-23T17:48:03.129Z,18.03
2022-11-23T17:50:30.289Z,25.13
2022-11-23T17:52:57.227Z,24.38
2022-11-23T17:55:23.885Z,14.97
2022-11-23T17:57:50.756Z,12.37
2022-11-23T18:00:20.378Z,12.33
2022-11-23T18:02:47.825Z,11.37
2022-11-23T18:05:21.206Z,12.57
2022-11-23T18:07:54.568Z,11.63
2022-11-23T18:10:21.558Z,12.87
2022-11-23T18:12:48.629Z,10.47
2022-11-23T18:15:15.766Z,12.63
2022-11-23T18:17:43.115Z,13.87
2022-11-23T18:20:10.498Z,11.23
2022-11-23T18:22:41.321Z,11.60
2022-11-23T18:25:08.763Z,11.77
2022-11-23T18:27:35.903Z,12.77
2022-11-23T18:30:03.265Z,13.70
2022-11-23T18:32:30.311Z,9.00
2022-11-23T18:34:57.365Z,11.07
2022-11-23T18:37:27.614Z,15.20
2022-11-23T18:39:54.529Z,15.03
2022-11-23T18:42:21.676Z,13.23
2022-11-23T18:44:48.685Z,13.30
2022-11-23T18:47:15.861Z,12.20
2022-11-23T18:49:43.015Z,14.70
2022-11-23T18:52:13.748Z,16.40
2022-11-23T18:54:40.488Z,17.40
2022-11-23T18:57:07.946Z,15.10
2022-11-23T18:59:56.842Z,17.47
2022-11-23T19:02:21.175Z,16.33
2022-11-23T19:04:47.742Z,15.23
2022-11-23T19:07:14.750Z,18.63
2022-11-23T19:09:41.368Z,14.17
2022-11-23T19:12:08.074Z,18.43
2022-11-23T19:14:34.638Z,17.43
2022-11-23T19:17:01.510Z,25.03
2022-11-23T19:19:28.281Z,22.87
2022-11-23T19:21:54.847Z,24.20
2022-11-23T19:24:21.415Z,15.23
2022-11-23T19:26:48.064Z,23.27
2022-11-23T19:29:14.816Z,17.17
2022-11-23T19:31:41.516Z,18.60
2022-11-23T19:34:10.377Z,21.33
2022-11-23T19:36:37.223Z,16.75
2022-11-23T19:39:05.391Z,16.97
2022-11-23T19:41:32.212Z,22.30
2022-11-23T19:44:00.274Z,16.33
2022-11-23T19:46:28.099Z,12.63
2022-11-23T19:48:57.095Z,13.68
2022-11-23T19:51:25.787Z,12.48
2022-11-23T19:53:52.489Z,12.68
2022-11-23T19:56:22.549Z,14.18
2022-11-23T19:58:54.121Z,10.55
2022-11-23T20:01:22.712Z,12.13
2022-11-23T20:03:51.337Z,10.52
2022-11-23T20:06:25.240Z,9.25
2022-11-23T20:08:56.583Z,8.57
2022-11-23T20:11:23.795Z,11.23
2022-11-23T20:13:50.562Z,8.75
2022-11-23T20:16:18.968Z,10.63
2022-11-23T20:18:46.655Z,6.57
2022-11-23T20:21:19.294Z,8.52
2022-11-23T20:23:47.014Z,12.68
2022-11-23T20:26:15.366Z,8.77
2022-11-23T20:28:42.668Z,9.02
2022-11-23T20:31:21.140Z,7.70
2022-11-23T20:33:51.677Z,7.72
2022-11-23T20:36:19.610Z,7.18
2022-11-23T20:38:46.979Z,8.25
2022-11-23T20:41:18.480Z,7.90
2022-11-23T20:43:46.346Z,7.68
2022-11-23T20:46:16.723Z,11.35
2022-11-23T20:48:51.797Z,9.90
2022-11-23T20:51:20.895Z,7.72
2022-11-23T20:53:48.620Z,6.30
2022-11-23T20:56:16.120Z,9.65
2022-11-23T20:58:43.165Z,7.55
2022-11-23T21:01:18.319Z,5.70
2022-11-23T21:03:55.923Z,8.48
2022-11-23T21:06:23.128Z,8.90
2022-11-23T21:08:50.596Z,5.45
2022-11-23T21:11:38.528Z,10.68
2022-11-23T21:14:11.191Z,6.38
2022-11-23T21:16:53.320Z,6.13
2022-11-23T21:19:21.941Z,12.30
2022-11-23T21:21:49.071Z,10.98
2022-11-23T21:24:15.724Z,13.18
2022-11-23T21:26:42.291Z,10.48
2022-11-23T21:29:09.609Z,14.80
2022-11-23T21:31:37.720Z,8.57
2022-11-23T21:34:10.424Z,10.25
2022-11-23T21:36:39.215Z,10.27
2022-11-23T21:39:08.599Z,9.50
2022-11-23T21:41:35.841Z,10.13
2022-11-23T21:44:03.347Z,12.68
2022-11-23T21:46:30.024Z,9.35
2022-11-23T21:48:58.940Z,9.07
2022-11-23T21:51:28.531Z,11.45
2022-11-23T21:53:56.311Z,8.80
2022-11-23T21:56:23.525Z,13.77
2022-11-23T21:58:50.531Z,9.57
2022-11-23T22:01:22.881Z,12.70
2022-11-23T22:03:50.895Z,12.68
2022-11-23T22:06:20.738Z,11.05
2022-11-23T22:08:52.495Z,10.23
2022-11-23T22:11:27.221Z,11.50
2022-11-23T22:13:59.533Z,14.00
2022-11-23T22:16:33.960Z,10.40
2022-11-23T22:19:01.302Z,14.18
2022-11-23T22:21:32.010Z,11.98
2022-11-23T22:23:59.394Z,14.98
2022-11-23T22:26:27.606Z,15.10
2022-11-23T22:28:55.424Z,12.27
2022-11-23T22:31:25.433Z,12.77
2022-11-23T22:33:53.308Z,14.55
2022-11-23T22:36:22.014Z,12.15
2022-11-23T22:38:57.919Z,14.38
2022-11-23T22:41:27.936Z,9.88
2022-11-23T22:43:55.032Z,12.35
2022-11-23T22:46:23.901Z,12.38
2022-11-23T22:48:51.873Z,11.30
2022-11-23T22:51:20.522Z,13.77
2022-11-23T22:53:47.544Z,11.55
2022-11-23T22:56:16.145Z,10.30
2022-11-23T22:58:44.377Z,13.65
2022-11-23T23:01:16.934Z,14.18
2022-11-23T23:03:44.308Z,11.65
2022-11-23T23:06:19.453Z,14.05
2022-11-23T23:08:47.190Z,12.32
2022-11-23T23:11:15.125Z,11.65
2022-11-23T23:13:42.258Z,11.60
2022-11-23T23:16:11.627Z,14.18
2022-11-23T23:18:38.448Z,12.13
2022-11-23T23:21:10.501Z,15.52
2022-11-23T23:23:38.401Z,13.07
2022-11-23T23:26:05.833Z,8.52
2022-11-23T23:28:33.454Z,11.57
2022-11-23T23:31:05.752Z,12.55
2022-11-23T23:33:33.280Z,12.43
2022-11-23T23:36:06.808Z,10.00
2022-11-23T23:38:33.426Z,12.82
2022-11-23T23:41:00.753Z,10.77
2022-11-23T23:43:28.686Z,11.73
2022-11-23T23:46:01.020Z,11.63
2022-11-23T23:48:33.601Z,14.52
2022-11-23T23:51:08.551Z,10.30
2022-11-23T23:53:36.214Z,10.65
2022-11-23T23:56:06.107Z,14.18
2022-11-23T23:58:32.794Z,12.95
